Time;durP1;ratioP1;P1;durP2;ratioP2;P2;SDS_P1;SDS_P2;PMS_P1;PMS_P2;Temp;Humidity;BMP_temperature;BMP_pressure;BME280_temperature;BME280_humidity;BME280_pressure;Samples;Min_cycle;Max_cycle;Signal;HPM_P1;HPM_P2
2022/10/28 00:01:33;;;;;;;4.03;3.50;;;;;;;9.08;100.00;101470.97;4896971;29;20036;-72
2022/10/28 00:04:00;;;;;;;4.70;3.83;;;;;;;9.03;100.00;101459.91;4897478;29;20400;-68
2022/10/28 00:06:33;;;;;;;3.83;3.33;;;;;;;9.07;100.00;101469.28;4897338;29;20437;-71
2022/10/28 00:08:59;;;;;;;5.77;4.20;;;;;;;9.05;100.00;101460.63;4897235;29;20084;-71
2022/10/28 00:11:27;;;;;;;4.07;3.67;;;;;;;9.06;100.00;101467.63;4897223;29;20028;-70
2022/10/28 00:13:54;;;;;;;5.05;3.67;;;;;;;8.99;100.00;101462.84;4896947;29;20081;-71
2022/10/28 00:16:23;;;;;;;5.07;4.20;;;;;;;9.08;100.00;101461.19;4896913;29;20377;-70
2022/10/28 00:18:52;;;;;;;5.33;3.83;;;;;;;9.08;100.00;101468.31;4897645;29;20059;-70
2022/10/28 00:21:23;;;;;;;4.73;3.80;;;;;;;9.06;100.00;101463.16;4897103;29;20105;-72
2022/10/28 00:23:50;;;;;;;4.37;3.83;;;;;;;9.11;100.00;101460.06;4900873;29;20080;-70
2022/10/28 00:26:24;;;;;;;5.17;4.10;;;;;;;9.15;100.00;101458.81;4900202;29;20047;-70
2022/10/28 00:28:58;;;;;;;6.33;4.50;;;;;;;9.17;100.00;101464.84;4900534;29;20028;-71
2022/10/28 00:31:26;;;;;;;6.27;4.07;;;;;;;9.20;100.00;101453.94;4900529;29;20028;-72
2022/10/28 00:33:52;;;;;;;3.95;3.55;;;;;;;9.22;100.00;101467.91;4900554;29;20476;-72
2022/10/28 00:36:17;;;;;;;7.93;5.70;;;;;;;9.24;100.00;101455.34;4900285;29;20029;-69
2022/10/28 00:38:45;;;;;;;7.43;4.77;;;;;;;9.24;100.00;101450.03;4900019;29;20493;-70
2022/10/28 00:41:13;;;;;;;5.33;4.13;;;;;;;9.30;100.00;101452.16;4900287;29;20036;-72
2022/10/28 00:43:50;;;;;;;6.70;4.60;;;;;;;9.34;100.00;101453.56;4900368;29;20123;-69
2022/10/28 00:46:21;;;;;;;6.17;4.13;;;;;;;9.38;100.00;101457.63;4900177;29;20480;-70
2022/10/28 00:48:49;;;;;;;5.30;4.73;;;;;;;9.29;100.00;101443.34;4900425;29;20032;-72
2022/10/28 00:51:18;;;;;;;5.45;4.45;;;;;;;9.25;100.00;101435.75;4899914;29;20024;-72
2022/10/28 00:53:44;;;;;;;;;;;;;;;9.46;100.00;101455.09;4900738;29;20032;-73
2022/10/28 00:56:11;;;;;;;5.30;4.80;;;;;;;9.42;100.00;101458.19;4900117;29;20348;-73
2022/10/28 00:58:37;;;;;;;6.90;5.57;;;;;;;9.42;100.00;101451.03;4899893;29;20407;-73
2022/10/28 01:01:03;;;;;;;8.00;5.30;;;;;;;9.50;100.00;101453.84;4900164;29;20039;-72
2022/10/28 01:03:35;;;;;;;6.27;5.63;;;;;;;9.50;100.00;101453.00;4899683;29;20053;-71
2022/10/28 01:06:01;;;;;;;9.07;6.33;;;;;;;9.48;100.00;101442.50;4899375;29;20040;-71
2022/10/28 01:08:26;;;;;;;6.53;4.73;;;;;;;9.50;100.00;101450.34;4899476;29;20128;-70
2022/10/28 01:11:33;;;;;;;6.43;5.17;;;;;;;9.54;100.00;101452.59;4899448;29;20036;-72
2022/10/28 01:14:08;;;;;;;8.77;5.50;;;;;;;9.58;100.00;101443.38;4899336;29;20039;-72
2022/10/28 01:16:48;;;;;;;9.83;5.33;;;;;;;9.59;100.00;101438.88;4899098;29;20055;-74
2022/10/28 01:20:13;;;;;;;6.17;5.17;;;;;;;9.58;100.00;101432.72;4899225;29;20507;-72
2022/10/28 01:23:17;;;;;;;6.40;5.80;;;;;;;9.60;100.00;101433.44;4841377;29;20136;-72
2022/10/28 01:26:11;;;;;;;6.10;5.40;;;;;;;9.59;100.00;101433.56;4841534;29;20121;-73
2022/10/28 01:29:02;;;;;;;5.87;4.53;;;;;;;9.61;100.00;101437.78;4894918;29;20056;-72
2022/10/28 01:31:42;;;;;;;10.83;5.33;;;;;;;9.63;100.00;101440.28;4882489;29;20385;-73
2022/10/28 01:34:14;;;;;;;7.03;5.63;;;;;;;9.49;100.00;101406.13;4899249;29;20492;-71
2022/10/28 01:36:55;;;;;;;7.40;5.53;;;;;;;9.61;100.00;101428.94;4899315;29;20036;-73
2022/10/28 01:39:28;;;;;;;7.07;4.87;;;;;;;9.62;100.00;101423.50;4898974;29;20044;-72
2022/10/28 01:41:59;;;;;;;5.80;5.20;;;;;;;9.63;100.00;101422.50;4898942;29;20028;-72
2022/10/28 01:44:44;;;;;;;8.17;5.47;;;;;;;9.66;100.00;101417.88;4898804;29;20024;-71
2022/10/28 01:47:21;;;;;;;7.33;5.23;;;;;;;9.66;100.00;101423.22;4901270;29;20071;-71
2022/10/28 01:50:02;;;;;;;8.20;5.40;;;;;;;9.66;100.00;101420.53;4883886;29;20036;-73
2022/10/28 01:52:31;;;;;;;8.20;5.63;;;;;;;9.62;100.00;101410.19;4900249;29;20088;-71
2022/10/28 01:55:32;;;;;;;7.97;5.75;;;;;;;9.65;100.00;101421.53;4900612;29;20021;-72
2022/10/28 01:58:00;;;;;;;8.00;4.83;;;;;;;9.65;100.00;101410.88;4869534;29;20481;-72
2022/10/28 02:00:26;;;;;;;5.88;5.18;;;;;;;9.63;100.00;101411.03;4899784;29;20116;-70
2022/10/28 02:02:54;;;;;;;5.20;4.70;;;;;;;9.59;100.00;101409.63;4898332;29;20556;-70
2022/10/28 02:05:47;;;;;;;9.30;5.70;;;;;;;9.62;100.00;101415.50;4898373;29;20184;-72
2022/10/28 02:08:19;;;;;;;5.70;5.13;;;;;;;9.63;100.00;101414.53;4898145;29;20436;-70
2022/10/28 02:11:01;;;;;;;6.20;5.30;;;;;;;9.61;100.00;101405.84;4898403;29;20032;-74
2022/10/28 02:13:46;;;;;;;8.00;5.17;;;;;;;9.60;100.00;101403.34;4898405;29;20033;-72
2022/10/28 02:16:21;;;;;;;5.97;5.30;;;;;;;9.58;100.00;101411.47;4869037;29;20045;-74
2022/10/28 02:18:58;;;;;;;7.20;5.00;;;;;;;9.59;100.00;101415.78;4898456;29;20040;-72
2022/10/28 02:21:32;;;;;;;7.73;5.80;;;;;;;9.54;100.00;101396.78;4898625;29;20027;-72
2022/10/28 02:24:26;;;;;;;5.80;4.73;;;;;;;9.65;100.00;101406.41;4898348;29;20039;-71
2022/10/28 02:27:00;;;;;;;7.33;5.57;;;;;;;9.63;100.00;101406.56;4877309;29;20089;-70
2022/10/28 02:29:37;;;;;;;6.57;5.70;;;;;;;9.68;100.00;101410.59;4898060;29;20047;-71
2022/10/28 02:32:17;;;;;;;13.00;5.67;;;;;;;9.62;100.00;101396.06;4898474;29;20426;-73
2022/10/28 02:34:47;;;;;;;7.00;5.20;;;;;;;9.66;100.00;101401.94;4899898;29;20072;-72
2022/10/28 02:37:35;;;;;;;5.43;4.70;;;;;;;9.63;100.00;101400.38;4899917;29;20465;-70
2022/10/28 02:40:08;;;;;;;6.83;6.07;;;;;;;9.64;100.00;101410.06;4899521;29;20164;-74
2022/10/28 02:42:39;;;;;;;6.50;5.53;;;;;;;9.65;100.00;101408.22;4898921;29;20032;-72
2022/10/28 02:45:11;;;;;;;5.47;4.97;;;;;;;9.67;100.00;101406.25;4898226;29;20032;-71
2022/10/28 02:47:42;;;;;;;7.47;5.97;;;;;;;9.72;100.00;101404.00;4899071;29;20032;-71
2022/10/28 02:50:12;;;;;;;8.83;5.60;;;;;;;9.78;100.00;101416.75;4897722;29;20033;-71
2022/10/28 02:52:41;;;;;;;8.90;6.23;;;;;;;9.79;100.00;101408.63;4897515;29;20457;-72
2022/10/28 02:55:07;;;;;;;11.00;6.18;;;;;;;9.81;100.00;101404.00;4897515;29;20416;-71
2022/10/28 02:57:40;;;;;;;7.10;5.93;;;;;;;9.82;100.00;101397.69;4897338;29;20044;-72
2022/10/28 03:00:10;;;;;;;11.03;7.07;;;;;;;9.83;100.00;101404.72;4897342;29;20032;-72
2022/10/28 03:02:37;;;;;;;9.53;5.83;;;;;;;9.80;100.00;101399.66;4897066;29;20139;-73
2022/10/28 03:05:08;;;;;;;8.17;5.73;;;;;;;9.85;100.00;101399.25;4897059;29;20358;-72
2022/10/28 03:07:33;;;;;;;11.07;6.67;;;;;;;9.88;100.00;101406.97;4897221;29;20127;-73
2022/10/28 03:09:59;;;;;;;8.23;6.30;;;;;;;9.83;100.00;101394.09;4897088;29;20120;-71
2022/10/28 03:12:24;;;;;;;10.43;6.50;;;;;;;9.88;100.00;101401.63;4897071;29;20036;-73
2022/10/28 03:14:50;;;;;;;7.70;6.57;;;;;;;9.87;100.00;101394.63;4880230;29;20120;-75
2022/10/28 03:17:15;;;;;;;11.23;6.73;;;;;;;9.70;100.00;101360.75;4880058;29;20028;-71
2022/10/28 03:19:41;;;;;;;9.53;7.30;;;;;;;9.83;100.00;101387.88;4880089;29;20421;-73
2022/10/28 03:22:06;;;;;;;8.90;7.80;;;;;;;9.96;100.00;101392.94;4896739;29;20032;-73
2022/10/28 03:24:32;;;;;;;11.03;6.60;;;;;;;9.92;100.00;101385.25;4896893;29;20034;-72
2022/10/28 03:26:57;;;;;;;9.27;6.03;;;;;;;10.00;100.00;101400.47;4897017;29;20028;-71
2022/10/28 03:29:23;;;;;;;8.10;7.10;;;;;;;9.98;100.00;101391.81;4897098;29;20461;-70
2022/10/28 03:31:48;;;;;;;8.43;7.50;;;;;;;10.04;100.00;101393.88;4897201;29;20063;-74
2022/10/28 03:34:14;;;;;;;10.93;6.70;;;;;;;10.05;100.00;101394.72;4897120;29;20091;-70
2022/10/28 03:36:39;;;;;;;9.67;7.57;;;;;;;10.07;100.00;101396.25;4896946;29;20039;-73
2022/10/28 03:39:05;;;;;;;10.53;7.73;;;;;;;10.06;100.00;101389.25;4896853;29;20055;-70
2022/10/28 03:41:31;;;;;;;10.90;7.53;;;;;;;10.08;100.00;101387.28;4895645;29;20051;-71
2022/10/28 03:43:57;;;;;;;10.77;7.43;;;;;;;10.11;100.00;101392.31;4896739;29;20032;-74
2022/10/28 03:46:22;;;;;;;14.47;7.93;;;;;;;10.11;100.00;101376.34;4896810;29;20048;-74
2022/10/28 03:48:48;;;;;;;13.13;7.27;;;;;;;10.16;100.00;101383.91;4896885;29;20032;-71
2022/10/28 03:51:13;;;;;;;13.53;8.17;;;;;;;10.18;100.00;101388.13;4896732;29;20524;-72
2022/10/28 03:53:39;;;;;;;9.67;7.53;;;;;;;10.20;100.00;101380.84;4896885;29;20024;-72
2022/10/28 03:56:04;;;;;;;9.17;6.60;;;;;;;10.21;100.00;101384.34;4898209;29;20116;-71
2022/10/28 03:58:30;;;;;;;11.80;7.10;;;;;;;10.17;100.00;101373.13;4884708;29;20338;-73
2022/10/28 04:00:56;;;;;;;9.50;8.03;;;;;;;10.17;100.00;101375.78;4901143;29;20036;-72
2022/10/28 04:03:24;;;;;;;11.00;7.93;;;;;;;10.20;100.00;101380.84;4900703;29;20052;-73
2022/10/28 04:05:49;;;;;;;12.57;8.55;;;;;;;10.21;100.00;101371.88;4900761;29;20084;-73
2022/10/28 04:08:16;;;;;;;10.27;8.43;;;;;;;10.19;100.00;101359.69;4883994;29;20036;-73
2022/10/28 04:10:45;;;;;;;11.13;8.43;;;;;;;10.20;100.00;101370.22;4900498;29;20032;-74
2022/10/28 04:13:11;;;;;;;8.83;7.43;;;;;;;10.21;100.00;101369.22;4900812;29;20529;-73
2022/10/28 04:15:37;;;;;;;10.50;7.83;;;;;;;10.21;100.00;101366.56;4900188;29;20059;-73
2022/10/28 04:18:03;;;;;;;9.27;7.77;;;;;;;10.18;100.00;101358.84;4900707;29;20469;-72
2022/10/28 04:20:29;;;;;;;11.30;7.80;;;;;;;10.16;100.00;101358.16;4901970;29;20072;-72
2022/10/28 04:22:54;;;;;;;12.60;8.47;;;;;;;10.17;100.00;101351.84;4909151;29;20080;-71
2022/10/28 04:25:21;;;;;;;15.27;7.43;;;;;;;10.16;100.00;101347.50;4911810;29;20433;-72
2022/10/28 04:27:47;;;;;;;13.53;8.07;;;;;;;10.21;100.00;101345.25;4909200;29;20025;-72
2022/10/28 04:30:13;;;;;;;10.80;7.73;;;;;;;10.22;100.00;101348.75;4908924;29;20052;-72
2022/10/28 04:32:40;;;;;;;9.47;8.33;;;;;;;10.21;100.00;101337.28;4904209;29;20362;-74
2022/10/28 04:35:07;;;;;;;10.50;8.27;;;;;;;10.24;100.00;101344.97;4900800;29;20032;-74
2022/10/28 04:37:33;;;;;;;13.67;9.13;;;;;;;10.19;100.00;101328.56;4900367;29;20060;-72
2022/10/28 04:39:58;;;;;;;15.83;9.17;;;;;;;10.28;100.00;101344.69;4900446;29;20074;-72
2022/10/28 04:42:24;;;;;;;12.07;8.63;;;;;;;10.31;100.00;101339.06;4900084;29;20036;-72
2022/10/28 04:44:49;;;;;;;13.50;9.47;;;;;;;10.18;100.00;101313.59;4900436;29;20033;-73
2022/10/28 04:47:16;;;;;;;11.20;8.67;;;;;;;10.32;100.00;101346.06;4899997;29;20039;-73
2022/10/28 04:49:42;;;;;;;13.73;9.03;;;;;;;10.28;100.00;101337.53;4883256;29;20036;-73
2022/10/28 04:52:08;;;;;;;17.57;8.73;;;;;;;10.24;100.00;101334.31;4899796;29;20032;-74
2022/10/28 04:54:33;;;;;;;15.63;9.53;;;;;;;10.22;100.00;101330.13;4899782;29;20331;-72
2022/10/28 04:56:59;;;;;;;14.40;10.50;;;;;;;10.18;100.00;101329.56;4899699;29;20032;-73
2022/10/28 04:59:24;;;;;;;17.37;10.30;;;;;;;10.18;100.00;101334.88;4900190;29;20032;-74
2022/10/28 05:01:54;;;;;;;20.77;10.63;;;;;;;10.21;100.00;101334.63;4900003;29;20532;-73
2022/10/28 05:04:19;;;;;;;21.23;11.17;;;;;;;10.19;100.00;101335.72;4900276;29;20041;-71
2022/10/28 05:06:45;;;;;;;19.67;11.67;;;;;;;10.14;100.00;101338.81;4899926;29;20172;-72
2022/10/28 05:09:11;;;;;;;16.50;10.30;;;;;;;10.15;100.00;101344.97;4899709;29;20054;-72
2022/10/28 05:11:36;;;;;;;14.53;10.63;;;;;;;10.14;100.00;101344.16;4899950;29;20032;-74
2022/10/28 05:14:02;;;;;;;23.07;11.10;;;;;;;10.13;100.00;101345.13;4899379;29;20021;-72
2022/10/28 05:16:27;;;;;;;18.07;10.60;;;;;;;10.14;100.00;101346.81;4899608;29;20021;-72
2022/10/28 05:18:53;;;;;;;15.63;10.00;;;;;;;10.14;100.00;101332.66;4899585;29;20028;-77
2022/10/28 05:21:18;;;;;;;15.10;10.50;;;;;;;10.15;100.00;101335.19;4899512;29;20125;-74
2022/10/28 05:23:45;;;;;;;14.53;10.60;;;;;;;10.18;100.00;101342.03;4899093;29;20029;-72
2022/10/28 05:26:11;;;;;;;18.07;11.37;;;;;;;10.21;100.00;101339.09;4899142;29;20060;-72
2022/10/28 05:28:37;;;;;;;16.80;10.57;;;;;;;10.21;100.00;101329.28;4882255;29;20500;-73
2022/10/28 05:31:03;;;;;;;14.30;10.93;;;;;;;10.21;100.00;101339.94;4899699;29;20037;-73
2022/10/28 05:33:28;;;;;;;16.20;10.70;;;;;;;10.19;100.00;101341.03;4899624;29;20024;-73
2022/10/28 05:35:54;;;;;;;21.93;11.17;;;;;;;10.21;100.00;101344.44;4882643;29;20104;-72
2022/10/28 05:38:19;;;;;;;16.17;10.07;;;;;;;10.22;100.00;101340.78;4899345;29;20131;-73
2022/10/28 05:40:45;;;;;;;19.27;11.07;;;;;;;10.20;100.00;101332.06;4898832;29;20465;-73
2022/10/28 05:43:11;;;;;;;17.53;10.77;;;;;;;10.22;100.00;101330.13;4897201;29;20150;-72
2022/10/28 05:45:37;;;;;;;19.50;10.83;;;;;;;10.20;100.00;101330.28;4898922;29;20029;-72
2022/10/28 05:48:02;;;;;;;16.47;11.20;;;;;;;10.17;100.00;101330.53;4899345;29;20124;-76
2022/10/28 05:50:28;;;;;;;14.83;11.03;;;;;;;10.21;100.00;101329.28;4899032;29;20045;-72
2022/10/28 05:52:55;;;;;;;17.13;11.07;;;;;;;10.20;100.00;101332.94;4898838;29;20028;-74
2022/10/28 05:55:23;;;;;;;18.40;10.90;;;;;;;10.18;100.00;101334.03;4898668;29;20087;-74
2022/10/28 05:57:50;;;;;;;19.38;11.40;;;;;;;10.10;100.00;101326.75;4898290;29;20040;-72
2022/10/28 06:00:22;;;;;;;17.30;10.00;;;;;;;10.13;100.00;101331.81;4899170;29;20036;-71
2022/10/28 06:02:50;;;;;;;17.27;9.73;;;;;;;10.15;100.00;101337.84;4898525;29;20045;-72
2022/10/28 06:05:18;;;;;;;;;;;;;;;10.22;100.00;101332.78;4899386;29;20051;-72
2022/10/28 06:07:43;;;;;;;21.57;10.33;;;;;;;10.11;100.00;101323.13;4907009;29;19954;-72
2022/10/28 06:10:12;;;;;;;19.17;10.07;;;;;;;10.13;100.00;101331.81;4914051;29;20029;-72
2022/10/28 06:12:38;;;;;;;19.02;9.40;;;;;;;10.10;100.00;101333.91;4911849;29;20028;-75
2022/10/28 06:15:07;;;;;;;17.93;9.37;;;;;;;10.08;100.00;101336.72;4899552;29;20035;-72
2022/10/28 06:17:32;;;;;;;21.67;10.37;;;;;;;10.10;100.00;101332.09;4898481;29;20123;-73
2022/10/28 06:20:01;;;;;;;12.37;9.13;;;;;;;10.12;100.00;101340.78;4898077;29;20104;-73
2022/10/28 06:22:26;;;;;;;13.68;9.65;;;;;;;10.14;100.00;101344.16;4898360;29;20132;-69
2022/10/28 06:24:52;;;;;;;15.40;9.23;;;;;;;10.14;100.00;101343.31;4901579;29;20480;-76
2022/10/28 06:27:29;;;;;;;17.50;9.73;;;;;;;10.11;100.00;101344.41;4909014;29;20049;-75
2022/10/28 06:29:57;;;;;;;17.67;9.90;;;;;;;10.08;100.00;101346.53;4889751;29;20040;-71
2022/10/28 06:32:22;;;;;;;20.27;9.60;;;;;;;10.08;100.00;101358.00;4902251;29;20036;-70
2022/10/28 06:34:48;;;;;;;18.67;10.50;;;;;;;10.08;100.00;101344.69;4900433;29;20039;-75
2022/10/28 06:37:14;;;;;;;21.77;10.50;;;;;;;10.07;100.00;101344.84;4899403;29;20119;-72
2022/10/28 06:39:39;;;;;;;17.10;9.80;;;;;;;10.10;100.00;101344.56;4898651;29;20116;-74
2022/10/28 06:42:05;;;;;;;17.90;9.70;;;;;;;10.09;100.00;101340.22;4881912;29;20067;-74
2022/10/28 06:44:30;;;;;;;16.27;9.23;;;;;;;10.10;100.00;101347.22;4898740;29;20496;-75
2022/10/28 06:46:56;;;;;;;17.60;9.30;;;;;;;10.08;100.00;101347.38;4898140;29;20036;-73
2022/10/28 06:49:21;;;;;;;20.13;8.90;;;;;;;10.08;100.00;101347.38;4880995;29;20075;-72
2022/10/28 06:51:48;;;;;;;17.40;9.37;;;;;;;10.10;100.00;101348.06;4880793;29;20452;-73
2022/10/28 06:54:14;;;;;;;19.30;8.57;;;;;;;10.12;100.00;101354.09;4880901;29;20032;-73
2022/10/28 06:56:39;;;;;;;18.47;9.23;;;;;;;10.08;100.00;101349.19;4897607;29;20035;-74
2022/10/28 06:59:06;;;;;;;14.60;8.47;;;;;;;10.16;100.00;101355.47;4897715;29;20029;-75
2022/10/28 07:09:18;;;;;;;20.60;9.33;;;;;;;10.15;100.00;101340.50;4858149;29;20124;-74
2022/10/28 07:11:47;;;;;;;17.10;8.40;;;;;;;10.21;100.00;101349.75;4828642;29;20048;-71
2022/10/28 07:14:12;;;;;;;18.33;8.60;;;;;;;10.21;100.00;101347.94;4860253;29;20060;-73
2022/10/28 07:16:38;;;;;;;17.90;8.63;;;;;;;10.20;100.00;101354.22;4843617;29;20087;-71
2022/10/28 07:19:04;;;;;;;15.43;8.10;;;;;;;10.19;100.00;101352.53;4858604;29;20033;-75
2022/10/28 07:21:33;;;;;;;16.47;8.73;;;;;;;10.28;100.00;101355.31;4849951;29;20381;-76
2022/10/28 07:24:02;;;;;;;22.77;10.53;;;;;;;10.29;100.00;101359.66;4860182;29;20085;-74
2022/10/28 07:26:27;;;;;;;21.00;9.43;;;;;;;10.22;100.00;101352.25;4863940;29;20120;-77
2022/10/28 07:28:53;;;;;;;17.97;11.10;;;;;;;10.23;100.00;101363.75;4861235;29;20037;-74
2022/10/28 07:31:19;;;;;;;15.73;8.90;;;;;;;10.18;100.00;101348.19;4843701;29;20040;-75
2022/10/28 07:33:50;;;;;;;16.20;8.93;;;;;;;10.21;100.00;101360.41;4860317;29;20411;-75
2022/10/28 07:36:16;;;;;;;19.67;8.97;;;;;;;10.23;100.00;101361.09;4829227;29;20033;-75
2022/10/28 07:38:41;;;;;;;25.77;10.77;;;;;;;10.21;100.00;101353.25;4860386;29;20479;-72
2022/10/28 07:41:08;;;;;;;19.50;8.87;;;;;;;10.24;100.00;101358.28;4860313;29;20030;-75
2022/10/28 07:43:36;;;;;;;21.27;9.07;;;;;;;10.27;100.00;101356.31;4859543;29;20040;-76
2022/10/28 07:46:02;;;;;;;17.80;8.70;;;;;;;10.27;100.00;101358.97;4860273;29;20044;-75
2022/10/28 07:48:28;;;;;;;17.40;9.83;;;;;;;10.18;100.00;101350.84;4859699;29;20030;-76
2022/10/28 07:50:53;;;;;;;19.53;10.07;;;;;;;10.18;100.00;101360.66;4860248;29;20427;-75
2022/10/28 07:53:19;;;;;;;19.33;9.70;;;;;;;10.16;100.00;101366.13;4860302;29;20029;-74
2022/10/28 07:55:53;;;;;;;23.60;9.73;;;;;;;10.12;100.00;101367.41;4860281;29;20041;-79
2022/10/28 07:58:18;;;;;;;17.17;10.53;;;;;;;10.10;100.00;101364.03;4860794;29;20038;-78
2022/10/28 08:00:44;;;;;;;20.27;9.00;;;;;;;10.03;100.00;101367.41;4862811;29;20385;-74
2022/10/28 08:03:09;;;;;;;17.33;9.13;;;;;;;9.99;100.00;101366.88;4879289;29;20025;-78
2022/10/28 08:05:35;;;;;;;14.97;8.60;;;;;;;9.91;100.00;101364.09;4879439;29;20107;-78
2022/10/28 08:08:03;;;;;;;21.17;9.70;;;;;;;10.00;100.00;101378.34;4879670;29;20057;-79
2022/10/28 08:10:54;;;;;;;25.50;10.23;;;;;;;10.02;100.00;101374.56;4878781;29;20085;-75
2022/10/28 08:13:20;;;;;;;15.53;8.23;;;;;;;9.77;100.00;101341.44;4880062;29;20033;-81
2022/10/28 08:15:53;;;;;;;19.53;9.20;;;;;;;9.92;100.00;101366.63;4880807;29;20029;-80
2022/10/28 08:18:20;;;;;;;17.60;10.70;;;;;;;9.93;100.00;101373.59;4879302;29;20044;-76
2022/10/28 08:20:47;;;;;;;17.97;11.87;;;;;;;9.93;100.00;101364.78;4879479;29;20037;-80
2022/10/28 08:23:15;;;;;;;23.90;12.83;;;;;;;9.95;100.00;101368.16;4880785;29;20036;-79
2022/10/28 08:25:54;;;;;;;27.23;13.17;;;;;;;9.94;100.00;101369.13;4880830;29;20116;-78
2022/10/28 08:28:19;;;;;;;20.47;10.90;;;;;;;9.92;100.00;101355.97;4879636;29;20041;-77
2022/10/28 08:30:46;;;;;;;31.83;11.47;;;;;;;9.98;100.00;101365.19;4873831;29;20064;-76
2022/10/28 08:33:12;;;;;;;23.43;11.57;;;;;;;10.00;100.00;101362.38;4839974;29;20042;-75
2022/10/28 08:35:38;;;;;;;21.37;11.00;;;;;;;10.04;100.00;101361.94;4860039;29;20044;-77
2022/10/28 08:38:04;;;;;;;21.37;8.73;;;;;;;10.05;100.00;101363.63;4859315;29;20030;-73
2022/10/28 08:41:01;;;;;;;21.73;10.63;;;;;;;10.07;100.00;101360.81;4860378;29;20371;-76
2022/10/28 08:43:43;;;;;;;20.17;9.20;;;;;;;10.08;100.00;101359.84;4861888;29;20511;-75
2022/10/28 08:46:36;;;;;;;14.57;7.97;;;;;;;10.13;100.00;101354.94;4862379;29;20569;-77
2022/10/28 08:49:10;;;;;;;23.20;8.00;;;;;;;10.16;100.00;101351.97;4862905;29;20045;-76
2022/10/28 08:51:55;;;;;;;25.43;10.70;;;;;;;10.18;100.00;101361.50;4863617;29;20053;-74
2022/10/28 08:54:39;;;;;;;19.57;9.43;;;;;;;10.17;100.00;101343.84;4862631;29;20052;-74
2022/10/28 08:57:10;;;;;;;19.50;8.30;;;;;;;10.24;100.00;101347.63;4853196;29;20082;-77
2022/10/28 08:59:39;;;;;;;16.37;7.83;;;;;;;10.27;100.00;101335.00;4873653;29;20128;-74
2022/10/28 09:02:17;;;;;;;19.93;9.73;;;;;;;10.28;100.00;101350.00;4858903;29;20033;-75
2022/10/28 09:04:45;;;;;;;25.00;10.07;;;;;;;10.34;100.00;101344.91;4864777;29;20088;-77
2022/10/28 09:07:19;;;;;;;21.85;8.95;;;;;;;10.40;100.00;101346.16;4868867;29;20053;-75
2022/10/28 09:09:46;;;;;;;20.53;8.90;;;;;;;10.43;100.00;101343.22;4848554;29;20040;-75
2022/10/28 09:12:26;;;;;;;24.27;8.83;;;;;;;10.47;100.00;101344.59;4866850;29;20064;-74
2022/10/28 09:15:02;;;;;;;20.97;8.30;;;;;;;10.46;100.00;101333.09;4872212;29;20049;-73
2022/10/28 09:17:43;;;;;;;14.23;8.63;;;;;;;10.41;100.00;101335.38;4873780;29;20041;-73
2022/10/28 09:20:18;;;;;;;19.17;9.20;;;;;;;10.43;100.00;101343.22;4864845;29;20052;-73
2022/10/28 09:22:58;;;;;;;22.47;10.37;;;;;;;10.51;100.00;101346.81;4872232;29;20055;-73
2022/10/28 09:25:35;;;;;;;19.27;9.20;;;;;;;10.52;100.00;101339.66;4873285;29;20037;-77
2022/10/28 09:28:18;;;;;;;21.52;8.85;;;;;;;10.60;100.00;101337.09;4867561;29;20178;-80
2022/10/28 09:31:07;;;;;;;17.00;8.50;;;;;;;10.62;100.00;101336.94;4871588;29;20033;-82
2022/10/28 09:33:45;;;;;;;22.57;8.03;;;;;;;10.63;100.00;101333.28;4882443;29;20056;-81
2022/10/28 09:47:54;;;;;;;13.60;7.60;;;;;;;10.53;100.00;101306.72;4865697;29;20438;-76
2022/10/28 09:54:13;;;;;;;21.30;8.50;;;;;;;10.37;100.00;101296.69;4861899;29;20504;-77
2022/10/28 09:56:39;;;;;;;32.17;8.13;;;;;;;10.46;100.00;101316.28;4853167;29;20037;-74
2022/10/28 09:59:14;;;;;;;18.43;7.27;;;;;;;10.35;100.00;101319.13;4871985;29;20470;-76
2022/10/28 10:01:41;;;;;;;22.30;7.50;;;;;;;10.36;100.00;101326.13;4866237;29;20041;-74
2022/10/28 10:04:25;;;;;;;17.52;7.60;;;;;;;10.38;100.00;101318.84;4872566;29;20036;-76
2022/10/28 10:07:17;;;;;;;19.57;8.37;;;;;;;10.43;100.00;101327.25;4856795;29;20089;-76
2022/10/28 10:10:43;;;;;;;;;;;;;;;;;;;;;
2022/10/28 10:13:40;;;;;;;18.13;8.30;;;;;;;10.40;100.00;101314.19;4866468;29;20041;-75
2022/10/28 10:16:35;;;;;;;21.67;7.50;;;;;;;10.46;100.00;101313.63;4873873;29;20056;-74
2022/10/28 10:19:45;;;;;;;14.73;8.07;;;;;;;10.40;100.00;101295.56;4858360;29;20110;-77
2022/10/28 10:22:48;;;;;;;18.10;7.43;;;;;;;10.61;100.00;101304.13;4861376;29;20182;-74
2022/10/28 10:25:19;;;;;;;13.60;7.03;;;;;;;10.63;100.00;101299.50;4860709;29;20074;-73
2022/10/28 10:28:26;;;;;;;15.20;7.80;;;;;;;10.65;100.00;101294.84;4864170;29;20471;-75
2022/10/28 10:31:30;;;;;;;13.50;7.87;;;;;;;10.65;100.00;101300.19;4838472;29;20045;-76
2022/10/28 10:33:57;;;;;;;24.87;7.67;;;;;;;10.58;100.00;101304.44;4877625;29;20037;-76
2022/10/28 10:36:27;;;;;;;17.33;7.13;;;;;;;10.55;100.00;101305.56;4878850;29;20485;-75
2022/10/28 10:39:02;;;;;;;22.80;7.53;;;;;;;10.42;100.00;101289.13;4879223;29;20044;-77
2022/10/28 10:41:54;;;;;;;17.03;7.40;;;;;;;10.54;100.00;101292.41;4879440;29;20060;-75
2022/10/28 10:44:57;;;;;;;14.17;7.97;;;;;;;10.61;100.00;101301.47;4882830;29;20064;-80
2022/10/28 10:47:23;;;;;;;16.87;9.63;;;;;;;10.56;100.00;101303.75;4880546;29;20492;-75
2022/10/28 10:49:51;;;;;;;18.57;7.87;;;;;;;10.58;100.00;101303.59;4879314;29;20045;-75
2022/10/28 10:52:37;;;;;;;20.20;7.68;;;;;;;10.60;100.00;101310.44;4878433;29;20029;-74
2022/10/28 10:55:06;;;;;;;15.43;8.93;;;;;;;10.48;100.00;101285.03;4861138;29;20082;-73
2022/10/28 10:57:33;;;;;;;16.10;7.90;;;;;;;10.51;100.00;101285.56;4877732;29;20056;-72
2022/10/28 10:59:59;;;;;;;23.90;8.10;;;;;;;10.59;100.00;101287.47;4878316;29;20429;-75
2022/10/28 11:02:38;;;;;;;17.07;7.97;;;;;;;10.61;100.00;101279.31;4878404;29;20618;-74
2022/10/28 11:05:09;;;;;;;21.00;9.67;;;;;;;10.63;100.00;101275.53;4878126;29;20036;-73
2022/10/28 11:07:44;;;;;;;24.33;8.77;;;;;;;10.67;100.00;101290.22;4846346;29;20049;-74
2022/10/28 11:10:40;;;;;;;19.90;8.00;;;;;;;10.67;100.00;101281.38;4878210;29;20089;-76
2022/10/28 11:13:25;;;;;;;22.87;7.90;;;;;;;10.68;100.00;101299.03;4844670;29;20050;-74
2022/10/28 11:16:25;;;;;;;12.43;7.37;;;;;;;10.61;100.00;101298.81;4878337;29;20029;-74
2022/10/28 11:18:52;;;;;;;15.47;6.67;;;;;;;10.65;100.00;101294.84;4876796;29;20045;-74
2022/10/28 11:21:26;;;;;;;19.03;6.93;;;;;;;10.68;100.00;101294.53;4841461;29;20033;-76
2022/10/28 11:24:01;;;;;;;21.07;7.47;;;;;;;10.70;100.00;101295.25;4860353;29;20036;-75
2022/10/28 11:26:28;;;;;;;15.73;7.17;;;;;;;10.71;100.00;101288.94;4860101;29;20044;-76
2022/10/28 11:28:59;;;;;;;20.77;6.07;;;;;;;10.67;100.00;101286.72;4861121;29;20032;-78
2022/10/28 11:31:40;;;;;;;14.07;5.97;;;;;;;10.70;100.00;101286.44;4861065;29;20041;-74
2022/10/28 11:34:25;;;;;;;17.57;6.30;;;;;;;10.58;100.00;101268.97;4861638;29;20041;-76
2022/10/28 11:37:30;;;;;;;15.47;7.13;;;;;;;10.62;100.00;101273.84;4860999;29;20033;-78
2022/10/28 11:40:14;;;;;;;18.03;7.37;;;;;;;10.67;100.00;101282.22;4861788;29;20090;-74
2022/10/28 11:43:01;;;;;;;15.10;7.07;;;;;;;10.67;100.00;101276.06;4866116;29;20030;-76
2022/10/28 11:45:32;;;;;;;17.87;6.57;;;;;;;10.67;100.00;101284.88;4878992;29;20067;-73
2022/10/28 11:48:01;;;;;;;20.47;9.07;;;;;;;10.67;100.00;101284.03;4881517;29;20029;-71
2022/10/28 11:50:49;;;;;;;20.23;7.33;;;;;;;10.55;100.00;101273.63;4872598;29;20041;-75
2022/10/28 11:53:30;;;;;;;18.10;6.97;;;;;;;10.68;100.00;101288.38;4864200;29;20029;-73
2022/10/28 11:55:59;;;;;;;16.63;7.57;;;;;;;10.68;100.00;101299.88;4866792;29;20389;-76
2022/10/28 11:58:39;;;;;;;18.63;6.68;;;;;;;10.70;100.00;101283.78;4870502;29;20137;-76
2022/10/28 12:01:26;;;;;;;16.80;6.60;;;;;;;10.73;100.00;101286.97;4859770;29;20044;-76